Time;durP1;ratioP1;P1;durP2;ratioP2;P2;SDS_P1;SDS_P2;PMS_P1;PMS_P2;Temp;Humidity;BMP_temperature;BMP_pressure;BME280_temperature;BME280_humidity;BME280_pressure;Samples;Min_cycle;Max_cycle;Signal;HPM_P1;HPM_P2
2023/09/25 00:00:49;;;;;;;7.95;2.08;;;12.90;99.90;;;;;;5000586;28;20026;-81
2023/09/25 00:03:15;;;;;;;5.18;1.83;;;12.90;99.90;;;;;;5017978;28;20068;-80
2023/09/25 00:05:41;;;;;;;5.05;2.10;;;12.90;99.90;;;;;;4984062;28;20053;-80
2023/09/25 00:08:07;;;;;;;5.68;2.65;;;12.90;99.90;;;;;;5032626;28;20030;-80
2023/09/25 00:10:33;;;;;;;4.93;1.85;;;12.90;99.90;;;;;;5015812;28;20033;-80
2023/09/25 00:13:00;;;;;;;3.85;1.60;;;12.90;99.90;;;;;;5016075;28;20026;-80
2023/09/25 00:15:26;;;;;;;5.30;2.20;;;12.90;99.90;;;;;;4999179;28;20040;-80
2023/09/25 00:17:52;;;;;;;4.35;1.77;;;12.90;99.90;;;;;;5000977;28;20046;-81
2023/09/25 00:20:23;;;;;;;5.13;1.60;;;13.00;99.90;;;;;;4998239;28;20027;-80
2023/09/25 00:22:50;;;;;;;5.30;1.67;;;13.00;99.90;;;;;;4998176;28;20036;-81
2023/09/25 00:25:18;;;;;;;3.70;1.55;;;13.00;99.90;;;;;;5046171;28;20097;-80
2023/09/25 00:27:44;;;;;;;3.38;1.70;;;13.00;99.90;;;;;;5032312;28;20040;-80
2023/09/25 00:30:11;;;;;;;5.70;2.17;;;13.00;99.90;;;;;;5001725;28;20287;-80
2023/09/25 00:32:37;;;;;;;6.07;2.10;;;13.00;99.90;;;;;;4993688;28;20049;-80
2023/09/25 00:35:07;;;;;;;5.90;2.10;;;13.00;99.90;;;;;;5016063;28;20113;-80
2023/09/25 00:37:33;;;;;;;6.82;2.00;;;13.00;99.90;;;;;;4999251;28;20334;-80
2023/09/25 00:39:59;;;;;;;7.18;2.10;;;13.00;99.90;;;;;;5033905;28;20080;-81
2023/09/25 00:42:26;;;;;;;7.53;2.30;;;13.00;99.90;;;;;;5015867;28;20029;-81
2023/09/25 00:44:52;;;;;;;6.10;2.13;;;13.00;99.90;;;;;;5016500;28;20279;-80
2023/09/25 00:47:19;;;;;;;6.50;2.17;;;13.00;99.90;;;;;;4983140;28;20110;-81
2023/09/25 00:49:46;;;;;;;7.07;2.50;;;13.00;99.90;;;;;;4997837;28;20076;-81
2023/09/25 00:52:12;;;;;;;6.03;2.17;;;13.00;99.90;;;;;;4998854;28;20307;-81
2023/09/25 00:54:38;;;;;;;8.70;2.50;;;13.00;99.90;;;;;;4980200;28;20110;-81
2023/09/25 00:57:05;;;;;;;5.88;2.38;;;13.00;99.90;;;;;;4983545;28;20050;-81
2023/09/25 00:59:32;;;;;;;6.93;2.22;;;12.90;99.90;;;;;;5000787;28;20026;-80
2023/09/25 01:01:58;;;;;;;6.00;2.10;;;12.90;99.90;;;;;;5000292;28;20137;-81
2023/09/25 01:04:24;;;;;;;6.70;2.25;;;12.90;99.90;;;;;;4976482;28;20163;-81
2023/09/25 01:06:50;;;;;;;5.63;2.00;;;12.80;99.90;;;;;;4997929;28;20264;-81
2023/09/25 01:09:16;;;;;;;5.40;2.10;;;12.80;99.90;;;;;;4999037;28;20037;-81
2023/09/25 01:11:42;;;;;;;5.03;2.00;;;12.80;99.90;;;;;;4999712;28;20030;-81
2023/09/25 01:14:09;;;;;;;6.68;2.30;;;12.80;99.90;;;;;;4982881;28;20040;-80
2023/09/25 01:16:36;;;;;;;5.13;2.13;;;12.80;99.90;;;;;;4998248;28;20050;-81
2023/09/25 01:19:05;;;;;;;6.32;2.20;;;12.80;99.90;;;;;;5015088;28;20077;-80
2023/09/25 01:21:34;;;;;;;6.90;2.25;;;12.80;99.90;;;;;;4999156;28;20093;-81
2023/09/25 01:24:02;;;;;;;6.28;2.00;;;12.70;99.90;;;;;;4998572;28;20113;-81
2023/09/25 01:26:28;;;;;;;5.65;2.08;;;12.70;99.90;;;;;;5013916;28;20030;-81
2023/09/25 01:28:54;;;;;;;7.28;2.30;;;12.70;99.90;;;;;;4995786;28;20192;-81
2023/09/25 01:31:20;;;;;;;6.10;2.20;;;12.70;99.90;;;;;;4983579;28;20042;-81
2023/09/25 01:33:45;;;;;;;6.80;2.30;;;12.70;99.90;;;;;;4998995;28;20049;-81
2023/09/25 01:36:11;;;;;;;7.30;2.50;;;12.70;99.90;;;;;;5017683;28;20099;-81
2023/09/25 01:38:37;;;;;;;7.55;2.30;;;12.60;99.90;;;;;;4986340;28;20306;-80
2023/09/25 01:41:04;;;;;;;5.53;2.20;;;12.60;99.90;;;;;;5003019;28;20120;-81
2023/09/25 01:43:29;;;;;;;5.80;2.10;;;12.60;99.90;;;;;;4982464;28;20033;-80
2023/09/25 01:45:55;;;;;;;6.18;2.10;;;12.60;99.90;;;;;;5002657;28;20163;-80
2023/09/25 01:48:21;;;;;;;6.30;2.33;;;12.60;99.90;;;;;;5004219;28;20410;-81
2023/09/25 01:50:47;;;;;;;6.88;2.10;;;12.60;99.90;;;;;;5001088;28;20061;-81
2023/09/25 01:53:12;;;;;;;6.18;2.20;;;12.60;99.90;;;;;;5002374;28;21167;-80
2023/09/25 01:55:40;;;;;;;5.53;2.08;;;12.50;99.90;;;;;;5000610;28;20148;-81
2023/09/25 01:58:08;;;;;;;6.15;2.10;;;12.50;99.90;;;;;;5003368;28;20284;-80
2023/09/25 02:00:35;;;;;;;6.60;2.20;;;12.50;99.90;;;;;;5016761;28;20914;-81
2023/09/25 02:03:01;;;;;;;5.40;2.00;;;12.50;99.90;;;;;;4987810;28;20040;-80
2023/09/25 02:05:26;;;;;;;6.18;2.28;;;12.50;99.90;;;;;;5035503;28;20029;-80
2023/09/25 02:07:52;;;;;;;5.38;2.00;;;12.50;99.90;;;;;;4987078;28;20041;-81
2023/09/25 02:10:18;;;;;;;5.68;2.00;;;12.50;99.90;;;;;;5035178;28;20373;-81
2023/09/25 02:12:44;;;;;;;6.00;2.22;;;12.50;99.90;;;;;;5018910;28;20144;-81
2023/09/25 02:15:10;;;;;;;5.55;2.00;;;12.50;99.90;;;;;;5003570;28;20033;-81
2023/09/25 02:17:36;;;;;;;6.47;2.20;;;12.50;99.90;;;;;;5002572;28;20327;-81
2023/09/25 02:20:36;;;;;;;5.32;2.05;;;12.50;99.90;;;;;;5019609;28;20057;-81
2023/09/25 02:22:55;;;;;;;5.63;2.10;;;12.40;99.90;;;;;;5013970;28;20030;-81
2023/09/25 02:25:21;;;;;;;6.40;2.30;;;12.40;99.90;;;;;;5018740;28;20025;-81
2023/09/25 02:27:46;;;;;;;5.80;2.08;;;12.40;99.90;;;;;;5000643;28;20057;-80
2023/09/25 02:30:12;;;;;;;6.78;2.22;;;12.40;99.90;;;;;;5018906;28;20037;-81
2023/09/25 02:32:41;;;;;;;5.18;2.10;;;12.40;99.90;;;;;;5017686;28;20057;-81
2023/09/25 02:35:07;;;;;;;5.57;2.17;;;12.40;99.90;;;;;;5001322;28;20048;-80
2023/09/25 02:37:33;;;;;;;5.07;2.03;;;12.40;99.90;;;;;;5018665;28;20026;-80
2023/09/25 02:39:59;;;;;;;5.70;2.03;;;12.40;99.90;;;;;;5002912;28;20025;-80
2023/09/25 02:42:24;;;;;;;6.25;2.08;;;12.40;99.90;;;;;;5018458;28;20366;-80
2023/09/25 02:44:51;;;;;;;5.65;2.03;;;12.40;99.90;;;;;;5017653;28;20038;-80
2023/09/25 02:47:17;;;;;;;5.50;2.10;;;12.30;99.90;;;;;;5000252;28;20069;-81
2023/09/25 02:49:43;;;;;;;5.03;1.80;;;12.30;99.90;;;;;;5018979;28;20026;-80
2023/09/25 02:52:09;;;;;;;6.53;2.20;;;12.30;99.90;;;;;;5017812;28;20092;-80
2023/09/25 02:54:34;;;;;;;6.68;2.15;;;12.30;99.90;;;;;;5000701;28;20050;-81
2023/09/25 02:57:00;;;;;;;5.47;1.95;;;12.30;99.90;;;;;;5001982;28;20049;-80
2023/09/25 02:59:26;;;;;;;5.22;1.98;;;12.30;99.90;;;;;;4991383;28;20053;-80
2023/09/25 03:01:52;;;;;;;4.78;1.95;;;12.30;99.90;;;;;;5015822;28;20339;-81
2023/09/25 03:04:17;;;;;;;5.88;2.00;;;12.30;99.90;;;;;;5017573;28;20177;-80
2023/09/25 03:06:43;;;;;;;5.47;2.03;;;12.30;99.90;;;;;;5017377;28;20038;-81
2023/09/25 03:09:09;;;;;;;5.20;1.90;;;12.30;99.90;;;;;;5002030;28;20037;-81
2023/09/25 03:11:34;;;;;;;7.90;2.47;;;12.20;99.90;;;;;;4966570;28;20038;-81
2023/09/25 03:14:00;;;;;;;5.85;2.17;;;12.30;99.90;;;;;;4981635;28;20030;-81
2023/09/25 03:16:26;;;;;;;6.30;2.20;;;12.20;99.90;;;;;;4985416;28;20137;-81
2023/09/25 03:18:52;;;;;;;5.18;2.00;;;12.20;99.90;;;;;;5001924;28;20064;-80
2023/09/25 03:21:17;;;;;;;5.22;2.00;;;12.20;99.90;;;;;;5017085;28;20144;-80
2023/09/25 03:23:45;;;;;;;6.18;2.20;;;12.20;99.90;;;;;;4967640;28;20038;-80
2023/09/25 03:26:17;;;;;;;5.40;1.88;;;12.20;99.90;;;;;;4999929;28;20072;-80
2023/09/25 03:28:45;;;;;;;5.00;1.90;;;12.20;99.90;;;;;;5001052;28;20219;-81
2023/09/25 03:31:11;;;;;;;5.20;1.90;;;12.10;99.90;;;;;;5015991;28;20178;-80
2023/09/25 03:33:37;;;;;;;6.03;2.00;;;12.10;99.90;;;;;;5000647;28;21490;-80
2023/09/25 03:36:04;;;;;;;7.38;2.15;;;11.30;99.90;;;;;;4990862;28;20088;-80
2023/09/25 03:38:30;;;;;;;6.55;2.20;;;12.10;99.90;;;;;;4983980;28;20060;-80
2023/09/25 03:40:57;;;;;;;5.25;2.08;;;12.10;99.90;;;;;;5018081;28;20076;-80
2023/09/25 03:43:22;;;;;;;5.43;2.03;;;12.10;99.90;;;;;;5017177;28;20042;-80
2023/09/25 03:45:48;;;;;;;6.88;2.22;;;12.10;99.90;;;;;;5017402;28;20080;-80
2023/09/25 03:48:14;;;;;;;7.28;2.28;;;12.00;99.90;;;;;;5015996;28;20030;-80
2023/09/25 03:50:40;;;;;;;7.78;2.25;;;12.00;99.90;;;;;;5001575;28;20069;-80
2023/09/25 03:53:05;;;;;;;6.90;2.30;;;12.00;99.90;;;;;;5029303;28;20050;-80
2023/09/25 03:55:31;;;;;;;4.82;2.13;;;12.00;99.90;;;;;;5016254;28;20106;-80
2023/09/25 03:57:57;;;;;;;6.25;2.20;;;12.00;99.90;;;;;;5000475;28;20057;-80
2023/09/25 04:00:23;;;;;;;6.38;2.15;;;12.00;99.90;;;;;;5000389;28;20065;-80
2023/09/25 04:02:49;;;;;;;5.80;2.03;;;12.00;99.90;;;;;;5001112;28;20168;-80
2023/09/25 04:05:15;;;;;;;5.43;2.22;;;12.00;99.90;;;;;;5012837;28;20102;-80
2023/09/25 04:07:40;;;;;;;5.38;2.10;;;12.00;99.90;;;;;;5014562;28;20338;-80
2023/09/25 04:10:07;;;;;;;6.03;2.30;;;12.00;99.90;;;;;;5000478;28;20140;-80
2023/09/25 04:12:34;;;;;;;5.65;2.13;;;12.10;99.90;;;;;;5027390;28;20048;-81
2023/09/25 04:15:16;;;;;;;6.60;2.35;;;12.00;99.90;;;;;;5032885;28;20125;-80
2023/09/25 04:17:43;;;;;;;6.20;2.35;;;12.00;99.90;;;;;;4998923;28;20056;-80
2023/09/25 04:20:15;;;;;;;6.07;2.38;;;12.00;99.90;;;;;;5034455;28;20034;-80
2023/09/25 04:22:41;;;;;;;5.22;1.95;;;12.00;99.90;;;;;;5048028;28;20046;-80
2023/09/25 04:25:08;;;;;;;7.80;2.28;;;12.00;99.90;;;;;;5015605;28;20033;-80
2023/09/25 04:27:35;;;;;;;8.23;2.40;;;12.00;99.90;;;;;;4981218;28;20339;-81
2023/09/25 04:30:03;;;;;;;6.00;2.08;;;12.00;99.90;;;;;;4997556;28;20057;-80
2023/09/25 04:32:29;;;;;;;5.95;2.20;;;12.00;99.90;;;;;;4978149;28;20298;-80
2023/09/25 04:34:55;;;;;;;6.88;2.20;;;12.00;99.90;;;;;;5031077;28;20045;-80
2023/09/25 04:37:20;;;;;;;5.60;2.17;;;12.00;99.90;;;;;;4999387;28;20029;-80
2023/09/25 04:39:46;;;;;;;5.80;2.10;;;12.00;99.90;;;;;;4998685;28;20080;-81
2023/09/25 04:42:12;;;;;;;6.20;2.22;;;12.00;99.90;;;;;;5044291;28;20179;-80
2023/09/25 04:44:39;;;;;;;8.15;2.20;;;12.00;99.90;;;;;;5013961;28;20241;-80
2023/09/25 04:47:06;;;;;;;6.53;2.13;;;12.00;99.90;;;;;;5031108;28;20211;-80
2023/09/25 04:49:32;;;;;;;6.38;2.30;;;12.00;99.90;;;;;;4997991;28;20053;-80
2023/09/25 04:51:58;;;;;;;9.32;2.53;;;12.00;99.90;;;;;;4978888;28;20148;-81
2023/09/25 04:54:24;;;;;;;6.85;2.20;;;12.00;99.90;;;;;;5015207;28;20053;-81
2023/09/25 04:56:50;;;;;;;5.72;2.10;;;12.00;99.90;;;;;;4983122;28;20034;-81
2023/09/25 04:59:15;;;;;;;6.78;2.30;;;12.00;99.90;;;;;;4985096;28;20026;-82
2023/09/25 05:01:41;;;;;;;5.90;2.30;;;12.00;99.90;;;;;;5002245;28;20266;-81
2023/09/25 05:04:07;;;;;;;5.35;2.30;;;12.00;99.90;;;;;;5016017;28;20034;-81
2023/09/25 05:06:33;;;;;;;5.38;2.08;;;12.00;99.90;;;;;;5020526;28;20034;-81
2023/09/25 05:08:59;;;;;;;6.53;2.13;;;12.00;99.90;;;;;;5002179;28;20041;-80
2023/09/25 05:11:24;;;;;;;6.00;2.20;;;12.00;99.90;;;;;;5003901;28;20049;-80
2023/09/25 05:13:50;;;;;;;5.20;1.95;;;12.10;99.90;;;;;;5001472;28;20058;-80
2023/09/25 05:16:16;;;;;;;4.68;1.98;;;12.10;99.90;;;;;;4996478;28;20081;-80
2023/09/25 05:18:43;;;;;;;5.55;2.20;;;12.10;99.90;;;;;;4979230;28;20423;-79
2023/09/25 05:21:08;;;;;;;6.20;2.17;;;12.10;99.90;;;;;;4993917;28;20029;-79
2023/09/25 05:23:34;;;;;;;5.97;2.30;;;12.10;99.90;;;;;;5006141;28;20226;-80
2023/09/25 05:26:00;;;;;;;5.35;1.92;;;12.10;99.90;;;;;;5022997;28;20034;-80
2023/09/25 05:28:26;;;;;;;6.55;2.30;;;12.10;99.90;;;;;;5019525;28;20042;-80
2023/09/25 05:30:56;;;;;;;6.20;2.17;;;12.10;99.90;;;;;;5017736;28;20045;-79
2023/09/25 05:33:22;;;;;;;6.50;2.08;;;12.10;99.90;;;;;;5018417;28;20041;-80
2023/09/25 05:35:48;;;;;;;6.25;2.20;;;12.20;99.90;;;;;;5038630;28;20065;-79
2023/09/25 05:38:14;;;;;;;6.97;2.13;;;12.20;99.90;;;;;;5031701;28;20096;-79
2023/09/25 05:40:40;;;;;;;5.28;2.00;;;12.20;99.90;;;;;;5007041;28;20045;-79
2023/09/25 05:43:06;;;;;;;6.03;2.13;;;12.20;99.90;;;;;;5039593;28;20100;-79
2023/09/25 05:45:31;;;;;;;4.85;2.10;;;12.20;99.90;;;;;;5022181;28;20049;-79
2023/09/25 05:47:57;;;;;;;6.70;2.20;;;12.20;99.90;;;;;;4988584;28;20376;-79
2023/09/25 05:50:26;;;;;;;5.78;2.03;;;12.30;99.90;;;;;;5006724;28;20096;-79
2023/09/25 05:52:52;;;;;;;7.28;2.28;;;12.30;99.90;;;;;;4991040;28;20222;-79
2023/09/25 05:55:18;;;;;;;5.95;2.10;;;12.30;99.90;;;;;;5043843;28;20049;-79
2023/09/25 05:57:44;;;;;;;7.13;2.30;;;12.30;99.90;;;;;;5016105;28;20091;-79
2023/09/25 06:00:13;;;;;;;5.57;2.00;;;12.40;99.90;;;;;;5001861;28;20053;-79
2023/09/25 06:02:40;;;;;;;6.18;2.00;;;12.40;99.90;;;;;;4986142;28;20037;-79
2023/09/25 06:05:06;;;;;;;5.32;2.08;;;12.40;99.90;;;;;;5018133;28;20032;-81
2023/09/25 06:07:32;;;;;;;5.80;2.10;;;12.50;99.90;;;;;;5032356;28;20057;-80
2023/09/25 06:09:58;;;;;;;6.43;2.20;;;12.40;99.90;;;;;;5001149;28;20042;-81
2023/09/25 06:12:24;;;;;;;6.47;2.30;;;12.50;99.90;;;;;;5017958;28;20026;-81
2023/09/25 06:14:49;;;;;;;5.80;2.25;;;12.50;99.90;;;;;;5018786;28;20049;-81
2023/09/25 06:17:15;;;;;;;7.78;2.40;;;12.50;99.90;;;;;;5017338;28;20389;-81
2023/09/25 06:19:41;;;;;;;7.55;2.45;;;12.60;99.90;;;;;;5000950;28;20034;-81
2023/09/25 06:22:07;;;;;;;6.22;2.03;;;12.60;99.90;;;;;;5017437;28;20276;-81
2023/09/25 06:24:33;;;;;;;6.07;2.35;;;12.60;99.90;;;;;;5002070;28;20241;-80
2023/09/25 06:26:59;;;;;;;6.85;2.40;;;12.60;99.90;;;;;;5001179;28;20049;-81
2023/09/25 06:29:25;;;;;;;6.53;2.25;;;12.70;99.90;;;;;;4984365;28;20033;-81
2023/09/25 06:31:51;;;;;;;5.45;2.08;;;12.70;99.90;;;;;;4986962;28;20089;-80
2023/09/25 06:34:17;;;;;;;5.55;2.20;;;12.70;99.90;;;;;;4987672;28;20038;-81
2023/09/25 06:36:42;;;;;;;6.00;2.47;;;12.70;99.90;;;;;;5019149;28;20037;-79
2023/09/25 06:39:09;;;;;;;5.22;2.03;;;12.70;99.90;;;;;;5000393;28;20292;-79
2023/09/25 06:41:40;;;;;;;6.93;1.92;;;12.80;99.90;;;;;;5001886;28;20087;-79
2023/09/25 06:44:05;;;;;;;5.43;2.20;;;12.80;99.90;;;;;;5002222;28;20081;-79
2023/09/25 06:46:32;;;;;;;5.50;2.00;;;12.80;99.90;;;;;;4979752;28;20085;-80
2023/09/25 06:49:02;;;;;;;6.53;2.30;;;12.90;99.90;;;;;;5033222;28;20038;-79
2023/09/25 06:51:29;;;;;;;6.13;2.20;;;12.90;99.90;;;;;;5001632;28;20018;-79
2023/09/25 06:53:55;;;;;;;7.55;2.33;;;12.90;99.90;;;;;;5017648;28;20103;-79
2023/09/25 06:56:21;;;;;;;7.47;2.22;;;13.00;99.90;;;;;;5015078;28;20159;-79
2023/09/25 06:58:46;;;;;;;6.70;2.13;;;13.00;99.90;;;;;;5032800;28;20065;-79
2023/09/25 07:01:12;;;;;;;5.05;2.20;;;13.00;99.90;;;;;;4998944;28;20026;-79
2023/09/25 07:03:38;;;;;;;5.90;2.10;;;13.10;99.90;;;;;;5016247;28;20053;-79
2023/09/25 07:06:04;;;;;;;6.68;2.20;;;13.10;99.90;;;;;;5017615;28;20033;-79
2023/09/25 07:08:30;;;;;;;5.22;2.08;;;13.10;99.90;;;;;;5002040;28;20085;-79
2023/09/25 07:10:58;;;;;;;6.60;2.30;;;13.10;99.90;;;;;;5049071;28;20087;-79
2023/09/25 07:13:24;;;;;;;7.05;2.47;;;13.20;99.90;;;;;;5016883;28;20047;-79
2023/09/25 07:15:50;;;;;;;6.25;2.15;;;13.20;99.90;;;;;;5034388;28;20256;-79
2023/09/25 07:18:19;;;;;;;5.07;2.10;;;13.20;99.90;;;;;;4997337;28;20025;-79
2023/09/25 07:20:52;;;;;;;4.78;1.90;;;13.30;99.90;;;;;;5048853;28;20143;-79
2023/09/25 07:23:18;;;;;;;4.03;1.77;;;13.30;99.90;;;;;;4999908;28;20229;-79
2023/09/25 07:25:44;;;;;;;5.95;2.00;;;13.30;99.90;;;;;;5032248;28;20048;-79
2023/09/25 07:28:11;;;;;;;8.15;2.03;;;13.40;99.90;;;;;;4997566;28;20058;-79
2023/09/25 07:30:44;;;;;;;5.63;2.10;;;13.40;99.90;;;;;;5048763;28;20037;-79
2023/09/25 07:33:11;;;;;;;6.97;2.15;;;13.40;99.90;;;;;;5002661;28;20025;-79
2023/09/25 07:35:37;;;;;;;6.30;2.00;;;13.50;99.90;;;;;;5018384;28;20042;-79
2023/09/25 07:38:04;;;;;;;6.07;2.03;;;13.60;99.90;;;;;;4999293;28;20096;-79
2023/09/25 07:40:29;;;;;;;7.03;2.40;;;13.60;99.90;;;;;;5000734;28;20089;-79
2023/09/25 07:42:55;;;;;;;7.65;2.35;;;13.70;99.90;;;;;;4984141;28;20168;-79
2023/09/25 07:45:25;;;;;;;5.57;2.03;;;13.70;99.90;;;;;;4999787;28;20022;-79
2023/09/25 07:47:54;;;;;;;6.18;2.10;;;13.70;99.90;;;;;;5002854;28;20044;-79
2023/09/25 07:50:22;;;;;;;6.85;2.28;;;13.80;99.90;;;;;;4997321;28;20436;-80
2023/09/25 07:52:54;;;;;;;4.40;1.80;;;13.80;99.90;;;;;;5043047;28;20068;-79
2023/09/25 07:55:20;;;;;;;5.95;2.03;;;13.90;99.90;;;;;;5015079;28;20284;-80
2023/09/25 07:57:46;;;;;;;6.25;2.00;;;14.00;99.90;;;;;;5001550;28;20200;-79
2023/09/25 08:00:21;;;;;;;5.25;2.10;;;14.10;99.90;;;;;;5027834;28;20030;-79
2023/09/25 08:02:51;;;;;;;7.40;2.35;;;14.30;99.90;;;;;;4987040;28;20096;-79
2023/09/25 08:05:18;;;;;;;6.95;2.03;;;14.40;99.90;;;;;;4998947;28;20041;-79
2023/09/25 08:07:48;;;;;;;5.22;2.00;;;14.50;99.90;;;;;;5015217;28;20042;-80
2023/09/25 08:10:14;;;;;;;6.15;2.25;;;14.60;99.90;;;;;;5018484;28;20115;-79
2023/09/25 08:12:40;;;;;;;6.90;2.03;;;14.70;99.90;;;;;;5000115;28;20038;-79
2023/09/25 08:15:07;;;;;;;5.38;2.00;;;14.80;99.90;;;;;;5018430;28;20036;-80
2023/09/25 08:17:33;;;;;;;5.57;1.90;;;14.80;99.90;;;;;;4980562;28;20032;-80
2023/09/25 08:20:00;;;;;;;4.85;1.77;;;14.90;99.90;;;;;;4997946;28;20093;-79
2023/09/25 08:22:26;;;;;;;5.50;1.90;;;14.90;99.90;;;;;;5015056;28;20187;-80
2023/09/25 08:24:52;;;;;;;6.28;1.92;;;14.90;99.90;;;;;;5000054;28;20030;-80
2023/09/25 08:27:20;;;;;;;6.43;2.00;;;15.00;99.90;;;;;;5015431;28;20042;-79
2023/09/25 08:29:47;;;;;;;6.07;1.80;;;15.00;99.90;;;;;;5033847;28;20387;-80
2023/09/25 08:32:13;;;;;;;5.35;2.00;;;15.00;99.90;;;;;;4996115;28;20045;-80
2023/09/25 08:34:38;;;;;;;4.95;1.95;;;15.10;99.90;;;;;;4984600;28;20029;-79
2023/09/25 08:37:05;;;;;;;4.85;1.80;;;15.20;99.90;;;;;;5000133;28;20034;-80
2023/09/25 08:39:31;;;;;;;6.03;1.85;;;15.20;99.90;;;;;;5011344;28;21276;-80
2023/09/25 08:41:57;;;;;;;6.07;1.90;;;15.30;99.90;;;;;;4999811;28;20069;-80
2023/09/25 08:44:23;;;;;;;4.70;1.75;;;15.30;99.90;;;;;;5017069;28;20041;-80
2023/09/25 08:46:49;;;;;;;4.43;1.65;;;15.40;99.90;;;;;;5035016;28;20057;-80
2023/09/25 08:49:15;;;;;;;4.28;1.70;;;15.40;99.90;;;;;;5004202;28;20046;-80
2023/09/25 08:51:41;;;;;;;5.63;1.90;;;15.50;99.90;;;;;;5035334;28;20030;-80
2023/09/25 08:54:08;;;;;;;5.95;2.00;;;15.50;99.90;;;;;;5002475;28;20242;-80
2023/09/25 08:56:34;;;;;;;4.82;1.80;;;15.60;99.90;;;;;;5003110;28;20030;-80
2023/09/25 08:59:02;;;;;;;5.65;1.77;;;15.70;99.90;;;;;;4987035;28;20049;-79
2023/09/25 09:01:29;;;;;;;4.38;1.80;;;15.80;99.90;;;;;;5002403;28;20038;-79
2023/09/25 09:03:54;;;;;;;7.40;1.90;;;16.00;99.90;;;;;;5017589;28;20029;-80
2023/09/25 09:06:20;;;;;;;4.93;1.75;;;16.10;99.90;;;;;;5002864;28;20109;-80
2023/09/25 09:08:48;;;;;;;5.47;2.00;;;16.30;99.90;;;;;;5019378;28;20036;-79
2023/09/25 09:11:15;;;;;;;5.95;1.95;;;16.30;99.90;;;;;;5000083;28;20041;-80
2023/09/25 09:13:47;;;;;;;5.25;1.90;;;16.40;99.90;;;;;;5020134;28;20037;-79
2023/09/25 09:16:17;;;;;;;5.65;1.90;;;16.40;99.90;;;;;;5004863;28;20065;-80
2023/09/25 09:18:44;;;;;;;5.68;1.80;;;16.40;99.90;;;;;;5000543;28;20029;-80
2023/09/25 09:21:27;;;;;;;7.65;2.10;;;16.50;99.90;;;;;;4999446;28;20041;-79
2023/09/25 09:23:57;;;;;;;;;;;16.60;99.90;;;;;;5003171;28;20040;-79
2023/09/25 09:26:23;;;;;;;4.15;1.50;;;16.80;99.90;;;;;;5004279;28;19917;-79
2023/09/25 09:28:49;;;;;;;7.65;2.28;;;16.90;99.90;;;;;;5034802;28;20160;-80
2023/09/25 09:31:19;;;;;;;5.60;2.00;;;17.00;99.90;;;;;;5018499;28;20214;-79
2023/09/25 09:33:45;;;;;;;5.95;1.92;;;17.00;99.90;;;;;;5004018;28;20038;-80
2023/09/25 09:36:14;;;;;;;7.35;2.03;;;17.00;99.90;;;;;;5052148;28;20223;-80
2023/09/25 09:38:41;;;;;;;6.35;2.00;;;17.10;99.90;;;;;;5048222;28;20029;-80
2023/09/25 09:41:08;;;;;;;4.78;1.70;;;17.20;99.90;;;;;;5001735;28;20046;-80
2023/09/25 09:43:34;;;;;;;5.65;1.80;;;17.20;99.90;;;;;;4999935;28;20048;-79
2023/09/25 09:46:01;;;;;;;5.57;1.83;;;17.30;99.90;;;;;;4998636;28;20050;-80
2023/09/25 09:48:30;;;;;;;5.43;1.83;;;17.30;99.90;;;;;;5034372;28;20166;-80
2023/09/25 09:51:02;;;;;;;4.13;1.73;;;17.30;99.90;;;;;;5016822;28;20311;-80
2023/09/25 09:53:28;;;;;;;6.60;1.92;;;17.40;99.90;;;;;;5014076;28;20112;-80
2023/09/25 09:55:58;;;;;;;3.92;1.60;;;17.40;99.90;;;;;;5016644;28;20151;-80
2023/09/25 09:58:28;;;;;;;4.95;1.70;;;17.50;99.90;;;;;;5003008;28;20043;-80
2023/09/25 10:00:55;;;;;;;4.85;1.60;;;17.50;99.90;;;;;;5018922;28;20179;-81
2023/09/25 10:03:23;;;;;;;5.03;1.88;;;17.50;99.90;;;;;;5047313;28;20060;-83
2023/09/25 10:05:49;;;;;;;4.90;1.60;;;17.50;99.90;;;;;;4992473;28;20052;-81
2023/09/25 10:08:16;;;;;;;5.32;1.80;;;17.50;99.90;;;;;;5000332;28;20034;-81
2023/09/25 10:10:48;;;;;;;5.75;1.90;;;17.50;99.90;;;;;;5003310;28;20044;-81
2023/09/25 10:13:29;;;;;;;4.97;1.73;;;17.60;99.90;;;;;;5017344;28;20077;-81
2023/09/25 10:16:01;;;;;;;4.07;1.60;;;17.60;99.90;;;;;;5019044;28;20033;-80
2023/09/25 10:18:31;;;;;;;6.05;2.00;;;17.60;99.90;;;;;;5034330;28;21082;-81
2023/09/25 10:21:13;;;;;;;4.82;1.73;;;17.60;99.90;;;;;;5017907;28;20037;-81
2023/09/25 10:23:48;;;;;;;3.72;1.73;;;17.70;99.90;;;;;;5050093;28;20180;-81
2023/09/25 10:26:22;;;;;;;5.47;1.90;;;17.80;99.90;;;;;;5017420;28;20030;-81
2023/09/25 10:28:58;;;;;;;5.32;1.80;;;17.80;99.90;;;;;;5002498;28;20288;-81
2023/09/25 10:31:29;;;;;;;5.22;1.77;;;17.90;99.90;;;;;;5016157;28;20041;-81
2023/09/25 10:33:59;;;;;;;5.35;1.85;;;18.00;99.90;;;;;;5000087;28;20347;-81
2023/09/25 10:36:42;;;;;;;5.57;1.80;;;18.00;99.90;;;;;;5001525;28;20104;-81
2023/09/25 10:39:09;;;;;;;4.63;1.75;;;18.10;99.90;;;;;;5001378;28;20072;-81
2023/09/25 10:41:38;;;;;;;5.35;1.80;;;18.10;99.90;;;;;;5000339;28;20260;-80
2023/09/25 10:44:04;;;;;;;5.32;1.83;;;18.10;99.90;;;;;;5000654;28;20036;-81
2023/09/25 10:46:30;;;;;;;4.38;1.65;;;18.10;99.90;;;;;;4999156;28;20038;-81
2023/09/25 10:48:57;;;;;;;5.30;1.77;;;18.10;99.90;;;;;;5002311;28;20054;-81
2023/09/25 10:51:23;;;;;;;5.70;2.00;;;18.10;99.90;;;;;;5017815;28;20053;-81
2023/09/25 10:53:49;;;;;;;5.22;1.88;;;18.20;99.90;;;;;;5005315;28;20218;-81
2023/09/25 10:56:16;;;;;;;7.93;2.03;;;18.20;99.90;;;;;;4988949;28;20045;-81
2023/09/25 10:58:47;;;;;;;6.60;1.90;;;18.30;99.90;;;;;;5005406;28;20034;-81
2023/09/25 11:01:29;;;;;;;5.25;1.90;;;18.40;99.90;;;;;;5005665;28;20046;-81
2023/09/25 11:03:57;;;;;;;5.68;1.95;;;18.40;99.90;;;;;;4982892;28;20092;-81
2023/09/25 11:06:23;;;;;;;5.93;2.10;;;18.50;99.90;;;;;;5014992;28;20100;-81
2023/09/25 11:09:04;;;;;;;6.15;2.17;;;18.50;99.90;;;;;;5015488;28;20029;-80
2023/09/25 11:11:30;;;;;;;5.22;1.80;;;18.60;99.90;;;;;;5000583;28;20032;-81
2023/09/25 11:13:57;;;;;;;6.82;1.88;;;18.70;99.90;;;;;;5018362;28;20054;-81
2023/09/25 11:16:24;;;;;;;7.75;1.92;;;18.70;99.90;;;;;;5000742;28;20052;-81
2023/09/25 11:19:04;;;;;;;5.88;1.80;;;18.80;99.90;;;;;;5049786;28;20038;-81
2023/09/25 11:21:32;;;;;;;5.50;2.00;;;18.80;99.90;;;;;;5016072;28;20050;-81
2023/09/25 11:23:58;;;;;;;9.98;2.47;;;18.90;99.90;;;;;;4998815;28;20073;-81
2023/09/25 11:26:27;;;;;;;7.05;1.90;;;19.00;99.90;;;;;;5001797;28;20292;-81
2023/09/25 11:28:57;;;;;;;5.47;2.05;;;19.10;99.90;;;;;;4997917;28;20080;-81
2023/09/25 11:31:26;;;;;;;6.57;2.08;;;19.10;99.90;;;;;;4999419;28;20100;-81
2023/09/25 11:33:52;;;;;;;5.75;1.90;;;19.20;99.90;;;;;;5017680;28;20029;-81
2023/09/25 11:36:19;;;;;;;6.55;2.00;;;19.30;99.90;;;;;;5000703;28;20065;-81
2023/09/25 11:38:49;;;;;;;5.53;2.00;;;19.40;99.90;;;;;;5001444;28;20038;-81
2023/09/25 11:41:15;;;;;;;6.15;2.00;;;19.40;99.90;;;;;;5014685;28;20030;-81
2023/09/25 11:43:41;;;;;;;6.32;2.10;;;19.60;99.90;;;;;;5000583;28;20041;-80
2023/09/25 11:46:06;;;;;;;6.70;2.00;;;19.60;99.90;;;;;;5017669;28;20025;-80
2023/09/25 11:48:33;;;;;;;6.03;2.08;;;19.70;99.90;;;;;;5034270;28;20088;-80
2023/09/25 11:51:00;;;;;;;6.03;1.90;;;19.80;99.90;;;;;;5015384;28;20045;-80
2023/09/25 11:53:26;;;;;;;6.13;1.98;;;19.90;99.90;;;;;;5001275;28;20029;-80
2023/09/25 11:55:53;;;;;;;5.15;1.70;;;19.90;99.90;;;;;;5000640;28;20057;-81
2023/09/25 11:58:19;;;;;;;5.90;1.90;;;19.90;99.90;;;;;;5033699;28;20041;-81
2023/09/25 12:00:45;;;;;;;6.88;2.00;;;19.90;99.90;;;;;;4998485;28;20038;-81
2023/09/25 12:03:11;;;;;;;6.63;2.20;;;19.80;99.90;;;;;;4994934;28;20026;-80
2023/09/25 12:05:37;;;;;;;6.75;2.30;;;19.80;99.90;;;;;;5032964;28;20034;-81
2023/09/25 12:08:06;;;;;;;4.95;1.80;;;19.80;99.90;;;;;;4999731;28;20093;-80
2023/09/25 12:10:38;;;;;;;6.70;2.00;;;19.80;99.90;;;;;;5000137;28;20045;-81
2023/09/25 12:13:08;;;;;;;5.05;1.80;;;19.90;99.90;;;;;;4997994;28;20030;-81
2023/09/25 12:15:33;;;;;;;6.70;2.10;;;19.90;99.90;;;;;;5017648;28;20064;-81
2023/09/25 12:17:59;;;;;;;5.22;1.95;;;19.90;99.90;;;;;;5001261;28;20050;-81
2023/09/25 12:20:26;;;;;;;8.50;2.20;;;19.90;99.90;;;;;;4999628;28;20050;-80
2023/09/25 12:22:55;;;;;;;7.22;1.95;;;20.00;99.90;;;;;;4998787;28;20037;-80
2023/09/25 12:25:21;;;;;;;6.72;2.05;;;20.00;99.90;;;;;;5014844;28;20053;-81
2023/09/25 12:27:47;;;;;;;5.85;1.95;;;20.00;99.90;;;;;;4984404;28;20029;-81
2023/09/25 12:30:15;;;;;;;5.68;1.98;;;20.00;99.90;;;;;;5047509;28;20119;-80
2023/09/25 12:32:47;;;;;;;5.95;1.90;;;19.90;99.90;;;;;;4998369;28;20040;-81
2023/09/25 12:35:15;;;;;;;5.93;2.13;;;19.90;99.90;;;;;;5027333;28;20092;-80
2023/09/25 12:37:45;;;;;;;5.32;1.80;;;19.90;99.90;;;;;;5000674;28;20029;-82
2023/09/25 12:40:13;;;;;;;6.80;2.00;;;19.90;99.90;;;;;;4985320;28;20171;-81
2023/09/25 12:42:40;;;;;;;8.05;2.10;;;19.90;99.90;;;;;;5000598;28;20302;-81
2023/09/25 12:45:06;;;;;;;4.57;1.88;;;20.00;99.90;;;;;;4982093;28;20034;-81
2023/09/25 12:47:33;;;;;;;6.32;2.03;;;20.00;99.90;;;;;;5015523;28;20345;-81